createdAt,value
2018-08-09T02:31:38.415Z,10.03
2018-08-09T02:34:14.420Z,10.48
2018-08-09T02:36:58.708Z,10.68
2018-08-09T02:39:42.283Z,9.83
2018-08-09T02:42:14.905Z,10.60
2018-08-09T02:44:45.343Z,10.50
2018-08-09T02:47:15.762Z,11.35
2018-08-09T02:49:46.165Z,11.73
2018-08-09T02:52:16.656Z,9.80
2018-08-09T02:54:47.797Z,11.28
2018-08-09T02:57:18.243Z,10.23
2018-08-09T02:59:48.699Z,11.20
2018-08-09T03:02:19.145Z,11.12
2018-08-09T03:04:49.564Z,12.28
2018-08-09T03:07:19.969Z,10.78
2018-08-09T03:09:50.373Z,10.53
2018-08-09T03:12:20.796Z,11.00
2018-08-09T03:14:51.233Z,10.03
2018-08-09T03:17:21.725Z,11.10
2018-08-09T03:19:52.089Z,10.50
2018-08-09T03:22:22.642Z,10.25
2018-08-09T03:24:53.313Z,10.13
2018-08-09T03:27:23.824Z,11.38
2018-08-09T03:29:54.269Z,10.53
2018-08-09T03:32:24.740Z,11.25
2018-08-09T03:34:55.111Z,11.57
2018-08-09T03:37:25.633Z,10.88
2018-08-09T03:39:56.040Z,10.95
2018-08-09T03:42:26.528Z,11.53
2018-08-09T03:44:57.054Z,11.22
2018-08-09T03:47:27.473Z,11.00
2018-08-09T03:49:58.032Z,11.63
2018-08-09T03:52:28.704Z,12.80
2018-08-09T03:54:59.289Z,12.30
2018-08-09T03:57:29.849Z,11.00
2018-08-09T04:00:00.364Z,10.72
2018-08-09T04:02:30.877Z,11.83
2018-08-09T04:05:01.576Z,12.60
2018-08-09T04:07:31.757Z,12.18
2018-08-09T04:10:02.203Z,11.60
2018-08-09T04:12:32.683Z,12.25
2018-08-09T04:15:07.136Z,12.37
2018-08-09T04:17:37.649Z,11.43
2018-08-09T04:20:08.234Z,11.95
2018-08-09T04:22:38.734Z,12.80
2018-08-09T04:25:09.206Z,12.80
2018-08-09T04:27:39.706Z,11.83
2018-08-09T04:30:10.294Z,13.18
2018-08-09T04:32:41.520Z,12.73
2018-08-09T04:35:11.969Z,13.65
2018-08-09T04:37:42.394Z,12.88
2018-08-09T04:40:12.823Z,12.75
2018-08-09T04:42:43.232Z,13.55
2018-08-09T04:45:14.264Z,14.10
2018-08-09T04:47:44.797Z,13.60
2018-08-09T04:50:15.250Z,13.95
2018-08-09T04:52:45.722Z,15.38
2018-08-09T04:55:16.143Z,15.23
2018-08-09T04:57:46.643Z,15.78
2018-08-09T05:00:17.087Z,15.35
2018-08-09T05:02:47.498Z,14.28
2018-08-09T05:05:18.025Z,15.30
2018-08-09T05:07:48.512Z,16.00
2018-08-09T05:10:19.076Z,14.10
2018-08-09T05:12:49.599Z,14.98
2018-08-09T05:15:20.170Z,13.70
2018-08-09T05:17:50.699Z,13.45
2018-08-09T05:20:21.153Z,14.43
2018-08-09T05:22:51.730Z,13.28
2018-08-09T05:25:22.333Z,16.17
2018-08-09T05:27:53.098Z,15.13
2018-08-09T05:30:23.994Z,15.20
2018-08-09T05:32:54.451Z,16.95
2018-08-09T05:35:25.151Z,15.30
2018-08-09T05:37:55.844Z,14.58
2018-08-09T05:40:26.360Z,14.20
2018-08-09T05:42:56.941Z,15.25
2018-08-09T05:45:27.542Z,16.02
2018-08-09T05:47:58.139Z,15.13
2018-08-09T05:50:28.778Z,15.48
2018-08-09T05:52:59.429Z,16.30
2018-08-09T05:55:29.972Z,15.70
2018-08-09T05:58:00.520Z,16.50
2018-08-09T06:00:31.292Z,16.20
2018-08-09T06:03:01.912Z,14.58
2018-08-09T06:06:12.159Z,14.50
2018-08-09T06:08:41.716Z,15.28
2018-08-09T06:11:11.112Z,15.70
2018-08-09T06:13:40.598Z,15.90
2018-08-09T06:16:10.191Z,14.93
2018-08-09T06:18:40.285Z,16.97
2018-08-09T06:21:09.912Z,15.23
2018-08-09T06:23:39.391Z,15.25
2018-08-09T06:26:09.033Z,15.33
2018-08-09T06:28:38.814Z,13.50
2018-08-09T06:31:08.546Z,16.27
2018-08-09T06:33:38.124Z,14.00
2018-08-09T06:38:36.529Z,14.10
2018-08-09T06:41:06.102Z,13.88
2018-08-09T06:43:35.517Z,12.73
2018-08-09T06:46:05.018Z,15.58
2018-08-09T06:51:03.244Z,15.03
2018-08-09T06:53:33.124Z,14.75
2018-08-09T06:56:02.526Z,14.15
2018-08-09T06:58:31.934Z,14.50
2018-08-09T07:01:01.263Z,14.10
2018-08-09T07:03:30.711Z,14.87
2018-08-09T07:06:00.088Z,14.30
2018-08-09T07:08:29.466Z,13.70
2018-08-09T07:10:59.729Z,15.07
2018-08-09T07:13:29.130Z,14.77
2018-08-09T07:15:58.599Z,13.98
2018-08-09T07:18:27.979Z,12.87
2018-08-09T07:20:57.525Z,11.83
2018-08-09T07:23:26.971Z,11.43
2018-08-09T07:25:56.745Z,12.13
2018-08-09T07:28:26.373Z,10.43
2018-08-09T07:30:55.835Z,10.70
2018-08-09T07:33:25.295Z,9.83
2018-08-09T07:35:55.016Z,11.17
2018-08-09T07:38:24.660Z,9.80
2018-08-09T07:40:54.382Z,10.47
2018-08-09T07:43:31.798Z,10.53
2018-08-09T07:46:01.531Z,10.00
2018-08-09T07:48:31.158Z,10.17
2018-08-09T07:51:00.835Z,9.13
2018-08-09T07:53:30.790Z,11.27
2018-08-09T07:56:00.670Z,9.50
2018-08-09T07:58:30.842Z,10.30
2018-08-09T08:01:00.712Z,10.13
2018-08-09T08:03:35.594Z,8.90
2018-08-09T08:06:08.160Z,9.33
2018-08-09T08:08:37.837Z,10.40
2018-08-09T08:11:12.455Z,9.33
2018-08-09T08:13:41.909Z,9.93
2018-08-09T08:16:11.304Z,9.83
2018-08-09T08:18:40.760Z,9.10
2018-08-09T08:21:10.827Z,9.13
2018-08-09T08:23:40.235Z,8.87
2018-08-09T08:26:09.615Z,8.73
2018-08-09T08:28:39.356Z,8.37
2018-08-09T08:31:09.058Z,8.70
2018-08-09T08:33:38.911Z,8.43
2018-08-09T08:36:22.842Z,8.90
2018-08-09T08:38:52.223Z,9.20
2018-08-09T08:41:21.688Z,10.13
2018-08-09T08:43:51.084Z,8.67
2018-08-09T08:46:20.803Z,9.43
2018-08-09T08:48:50.350Z,9.17
2018-08-09T08:51:19.796Z,10.33
2018-08-09T08:53:49.353Z,9.53
2018-08-09T08:56:18.846Z,9.17
2018-08-09T08:58:48.288Z,8.70
2018-08-09T09:01:19.027Z,9.70
2018-08-09T09:03:49.501Z,8.37
2018-08-09T09:06:19.164Z,8.67
2018-08-09T09:08:49.764Z,9.17
2018-08-09T09:11:19.277Z,8.30
2018-08-09T09:13:49.333Z,8.00
2018-08-09T09:16:18.928Z,8.40
2018-08-09T09:21:28.963Z,8.40
2018-08-09T09:23:58.467Z,8.20
2018-08-09T09:26:28.525Z,8.65
2018-08-09T09:28:57.933Z,8.97
2018-08-09T09:31:27.398Z,8.57
2018-08-09T09:33:56.941Z,9.10
2018-08-09T09:36:26.786Z,8.27
2018-08-09T09:38:56.574Z,8.20
2018-08-09T09:41:26.237Z,8.33
2018-08-09T09:43:56.369Z,8.00
2018-08-09T09:46:26.253Z,8.07
2018-08-09T09:48:55.973Z,7.27
2018-08-09T09:51:25.534Z,9.37
2018-08-09T09:53:55.133Z,8.97
2018-08-09T09:58:53.493Z,8.40
2018-08-09T10:01:28.127Z,9.40
2018-08-09T10:03:57.667Z,8.25
2018-08-09T10:06:27.235Z,8.95
2018-08-09T10:09:10.339Z,8.70
2018-08-09T10:11:39.972Z,8.60
2018-08-09T10:14:09.346Z,9.60
2018-08-09T10:16:38.768Z,8.40
2018-08-09T10:19:08.261Z,8.90
2018-08-09T10:24:07.009Z,8.80
2018-08-09T10:26:36.865Z,8.13
2018-08-09T10:29:06.531Z,8.23
2018-08-09T10:31:36.175Z,7.60
2018-08-09T10:34:05.701Z,8.40
2018-08-09T10:36:35.131Z,8.30
2018-08-09T10:39:07.713Z,8.30
2018-08-09T10:41:37.274Z,9.00
2018-08-09T10:44:06.806Z,8.97
2018-08-09T10:46:36.530Z,7.93
2018-08-09T10:49:34.286Z,7.27
2018-08-09T10:52:04.036Z,6.60
2018-08-09T10:54:34.327Z,6.83
2018-08-09T10:57:04.466Z,8.10
2018-08-09T10:59:34.135Z,7.30
2018-08-09T11:02:04.566Z,7.47
2018-08-09T11:04:34.356Z,6.77
2018-08-09T11:07:04.126Z,7.27
2018-08-09T11:09:33.672Z,7.70
2018-08-09T11:12:03.805Z,7.47
2018-08-09T11:14:33.141Z,7.70
2018-08-09T11:17:02.601Z,8.17
2018-08-09T11:19:32.235Z,9.70
2018-08-09T11:22:01.755Z,7.00
2018-08-09T11:24:31.097Z,6.77
2018-08-09T11:27:00.674Z,6.97
2018-08-09T11:29:30.073Z,6.70
2018-08-09T11:32:00.066Z,7.70
2018-08-09T11:34:29.601Z,6.63
2018-08-09T11:36:59.229Z,7.40
2018-08-09T11:39:34.025Z,7.20
2018-08-09T11:42:03.598Z,7.23
2018-08-09T11:44:33.269Z,7.77
2018-08-09T11:47:03.048Z,7.50
2018-08-09T11:49:32.507Z,8.00
2018-08-09T11:52:01.985Z,7.10
2018-08-09T11:54:31.515Z,7.90
2018-08-09T11:57:01.746Z,7.03
2018-08-09T11:59:31.357Z,7.10
2018-08-09T12:02:00.971Z,7.50
2018-08-09T12:04:30.532Z,6.77
2018-08-09T12:07:00.363Z,7.77
2018-08-09T12:09:29.862Z,6.67
2018-08-09T12:11:59.935Z,6.40
2018-08-09T12:14:29.410Z,7.10
2018-08-09T12:16:59.472Z,7.50
2018-08-09T12:19:29.160Z,7.03
2018-08-09T12:21:59.689Z,7.10
2018-08-09T12:24:29.412Z,7.70
2018-08-09T12:26:59.464Z,8.30
2018-08-09T12:29:30.697Z,7.43
2018-08-09T12:32:00.348Z,7.47
2018-08-09T12:34:55.574Z,6.67
2018-08-09T12:37:26.380Z,7.07
2018-08-09T12:39:56.813Z,6.60
2018-08-09T12:42:26.514Z,7.10
2018-08-09T12:44:56.700Z,6.67
2018-08-09T12:47:26.883Z,6.27
2018-08-09T12:49:57.121Z,5.90
2018-08-09T12:52:26.868Z,6.13
2018-08-09T12:54:56.683Z,6.83
2018-08-09T12:57:26.873Z,6.83
2018-08-09T12:59:57.251Z,4.83
2018-08-09T13:02:27.409Z,6.33
2018-08-09T13:04:59.996Z,6.17
2018-08-09T13:07:30.350Z,6.00
2018-08-09T13:10:00.862Z,5.80
2018-08-09T13:12:34.890Z,5.60
2018-08-09T13:15:07.452Z,6.37
2018-08-09T13:17:37.356Z,5.60
2018-08-09T13:20:08.803Z,6.33
2018-08-09T13:22:38.714Z,5.90
2018-08-09T13:25:09.509Z,5.93
2018-08-09T13:27:39.135Z,5.30
2018-08-09T13:30:13.294Z,4.80
2018-08-09T13:32:44.359Z,5.57
2018-08-09T13:35:14.239Z,5.10
2018-08-09T13:37:44.132Z,4.87
2018-08-09T13:40:13.709Z,4.40
2018-08-09T13:42:43.256Z,4.60
2018-08-09T13:45:15.651Z,4.13
2018-08-09T13:47:45.187Z,4.40
2018-08-09T13:50:14.671Z,3.73
2018-08-09T13:52:44.683Z,4.07
2018-08-09T13:55:15.566Z,4.90
2018-08-09T13:57:45.658Z,5.37
2018-08-09T14:00:16.434Z,5.50
2018-08-09T14:02:46.509Z,5.20
2018-08-09T14:05:16.399Z,5.47
2018-08-09T14:07:46.089Z,4.75
2018-08-09T14:10:16.220Z,4.95
2018-08-09T14:12:45.853Z,5.15
2018-08-09T14:15:15.853Z,5.17
2018-08-09T14:17:45.577Z,5.05
2018-08-09T14:20:18.017Z,5.87
2018-08-09T14:22:48.049Z,6.40
2018-08-09T14:25:17.519Z,6.40
2018-08-09T14:27:46.987Z,5.20
2018-08-09T14:30:24.104Z,5.20
2018-08-09T14:32:55.035Z,6.20
2018-08-09T14:35:33.029Z,4.90
2018-08-09T14:40:50.584Z,5.35
2018-08-09T14:43:28.990Z,5.05
2018-08-09T14:45:58.399Z,5.40
2018-08-09T14:48:27.838Z,5.58
2018-08-09T14:50:57.541Z,4.62
2018-08-09T14:53:26.985Z,4.20
2018-08-09T14:55:56.431Z,4.62
2018-08-09T14:58:25.957Z,5.25
2018-08-09T15:00:55.485Z,4.25
2018-08-09T15:03:25.841Z,5.67
2018-08-09T15:06:01.752Z,4.60
2018-08-09T15:08:43.421Z,4.40
2018-08-09T15:11:27.989Z,5.37
2018-08-09T15:14:03.735Z,4.65
2018-08-09T15:16:36.530Z,4.70
2018-08-09T15:19:06.305Z,4.78
2018-08-09T15:21:35.900Z,4.67
2018-08-09T15:24:05.475Z,5.62
2018-08-09T15:26:35.335Z,4.85
2018-08-09T15:29:05.518Z,4.85
2018-08-09T15:31:35.165Z,5.33
2018-08-09T15:34:11.406Z,5.75
2018-08-09T15:36:52.636Z,4.90
2018-08-09T15:42:19.523Z,5.40
2018-08-09T15:44:49.519Z,5.58
2018-08-09T15:47:27.110Z,5.33
2018-08-09T15:49:56.990Z,5.25
2018-08-09T15:52:26.782Z,4.95
2018-08-09T15:54:56.653Z,5.92
2018-08-09T15:57:26.524Z,5.67
2018-08-09T15:59:56.262Z,5.10
2018-08-09T16:02:26.251Z,5.85
2018-08-09T16:04:56.277Z,5.08
2018-08-09T16:07:25.979Z,4.83
2018-08-09T16:18:59.851Z,5.10
2018-08-09T16:21:31.944Z,5.72
2018-08-09T16:24:04.319Z,5.67
2018-08-09T16:26:37.845Z,4.70
2018-08-09T16:29:10.703Z,5.28
2018-08-09T16:31:42.552Z,5.15
2018-08-09T16:34:14.621Z,5.80
2018-08-09T16:36:46.481Z,7.17
2018-08-09T16:39:18.444Z,5.22
2018-08-09T16:41:51.166Z,5.95
2018-08-09T16:44:23.397Z,5.15
2018-08-09T16:46:56.378Z,5.35
2018-08-09T16:49:28.961Z,4.90
2018-08-09T16:52:01.574Z,4.97
2018-08-09T16:54:34.243Z,5.10
2018-08-09T16:57:06.895Z,5.15
2018-08-09T17:00:19.313Z,4.85
2018-08-09T17:02:53.799Z,5.30
2018-08-09T17:05:26.435Z,5.78
2018-08-09T17:07:56.161Z,5.40
2018-08-09T17:10:27.058Z,5.47
2018-08-09T17:12:56.934Z,4.90
2018-08-09T17:15:39.171Z,5.75
2018-08-09T17:18:08.897Z,5.40
2018-08-09T17:20:38.976Z,5.22
2018-08-09T17:23:09.000Z,5.50
2018-08-09T17:25:39.410Z,5.00
2018-08-09T17:28:09.435Z,6.30
2018-08-09T17:30:39.336Z,5.28
2018-08-09T17:33:13.293Z,5.87
2018-08-09T17:35:44.456Z,6.10
2018-08-09T17:38:14.139Z,6.10
2018-08-09T17:40:43.993Z,6.15
2018-08-09T17:43:18.355Z,4.83
2018-08-09T17:45:48.333Z,5.30
2018-08-09T17:48:18.706Z,4.50
2018-08-09T17:50:48.419Z,4.42
2018-08-09T17:53:18.202Z,5.05
2018-08-09T17:55:50.088Z,4.53
2018-08-09T17:58:20.271Z,3.85
2018-08-09T18:00:49.981Z,4.47
2018-08-09T18:03:19.740Z,4.30
2018-08-09T18:05:50.123Z,4.75
2018-08-09T18:08:19.891Z,4.72
2018-08-09T18:10:49.650Z,3.70
2018-08-09T18:13:19.494Z,4.20
2018-08-09T18:15:49.680Z,3.72
2018-08-09T18:18:19.500Z,3.72
2018-08-09T18:20:50.873Z,3.83
2018-08-09T18:23:20.768Z,3.65
2018-08-09T18:25:50.574Z,3.70
2018-08-09T18:28:21.740Z,3.80
2018-08-09T18:30:53.091Z,3.62
2018-08-09T18:33:22.801Z,3.55
2018-08-09T18:36:04.180Z,4.70
2018-08-09T18:38:48.950Z,4.85
2018-08-09T18:41:22.554Z,4.00
2018-08-09T18:44:04.461Z,5.15
2018-08-09T18:46:47.674Z,3.85
2018-08-09T18:49:59.538Z,3.45
2018-08-09T18:52:31.423Z,3.80
2018-08-09T18:55:01.154Z,3.70
2018-08-09T18:57:32.879Z,4.05
2018-08-09T19:00:20.656Z,3.52
2018-08-09T19:02:51.240Z,3.30
2018-08-09T19:05:24.357Z,3.20
2018-08-09T19:51:42.827Z,3.65
2018-08-09T19:54:14.516Z,4.28
2018-08-09T19:56:44.254Z,4.35
2018-08-09T19:59:34.342Z,3.62
2018-08-09T20:02:06.711Z,3.62
2018-08-09T20:04:45.107Z,5.20
2018-08-09T20:07:14.783Z,4.20
2018-08-09T20:09:44.489Z,5.00
2018-08-09T20:12:14.657Z,4.50
2018-08-09T20:14:44.173Z,4.90
2018-08-09T20:17:14.022Z,3.62
2018-08-09T20:19:43.674Z,5.08
2018-08-09T20:22:18.203Z,4.50
2018-08-09T20:25:02.461Z,4.20
2018-08-09T20:27:32.683Z,5.33
2018-08-09T20:30:03.402Z,4.20
2018-08-09T20:32:35.691Z,3.67
2018-08-09T20:35:11.195Z,3.65
2018-08-09T20:37:41.823Z,3.85
2018-08-09T20:40:13.953Z,3.75
2018-08-09T20:42:44.554Z,3.87
2018-08-09T20:45:17.083Z,3.90
2018-08-09T20:47:46.838Z,4.30
2018-08-09T20:50:20.049Z,4.47
2018-08-09T20:52:50.528Z,4.47
2018-08-09T20:55:20.292Z,4.03
2018-08-09T20:57:50.731Z,4.75
2018-08-09T21:00:25.696Z,4.17
2018-08-09T21:02:57.074Z,4.40
2018-08-09T21:07:52.680Z,5.85
2018-08-09T21:10:22.414Z,4.40
2018-08-09T21:12:51.893Z,4.03
2018-08-09T21:15:22.043Z,3.75
2018-08-09T21:17:51.500Z,4.40
2018-08-09T21:20:21.045Z,4.70
2018-08-09T21:22:51.166Z,4.83
2018-08-09T21:25:20.836Z,4.30
2018-08-09T21:27:50.854Z,4.60
2018-08-09T21:30:22.634Z,4.20
2018-08-09T21:32:52.432Z,4.55
2018-08-09T21:35:21.987Z,3.45
2018-08-09T21:37:51.694Z,3.92
2018-08-09T21:40:21.185Z,3.87
2018-08-09T21:42:50.686Z,4.00
2018-08-09T21:45:20.711Z,4.00
2018-08-09T21:47:50.173Z,4.50
2018-08-09T21:50:21.893Z,4.20
2018-08-09T21:52:51.407Z,4.42
2018-08-09T21:55:21.153Z,4.72
2018-08-09T21:57:50.719Z,5.03
2018-08-09T22:01:05.262Z,4.15
2018-08-09T22:03:36.553Z,4.35
2018-08-09T22:06:11.371Z,3.92
2018-08-09T22:08:46.072Z,4.60
2018-08-09T22:11:20.610Z,3.50
2018-08-09T22:13:55.267Z,3.20
2018-08-09T22:16:30.128Z,3.52
2018-08-09T22:19:04.945Z,3.85
2018-08-09T22:21:39.676Z,3.85
2018-08-09T22:24:09.194Z,4.05
2018-08-09T22:26:38.574Z,3.40
2018-08-09T22:29:08.142Z,3.35
2018-08-09T22:31:37.648Z,3.50
2018-08-09T22:34:07.730Z,3.30
2018-08-09T22:36:37.352Z,4.95
2018-08-09T22:39:09.985Z,3.85
2018-08-09T22:41:39.455Z,4.55
2018-08-09T22:44:09.068Z,4.20
2018-08-09T22:46:40.120Z,3.58
2018-08-09T22:49:09.799Z,4.08
2018-08-09T22:51:39.511Z,3.52
2018-08-09T22:54:09.133Z,3.70
2018-08-09T22:56:38.615Z,3.60
2018-08-09T22:59:08.094Z,3.60
2018-08-09T23:01:37.477Z,3.20
2018-08-09T23:04:06.923Z,3.08
2018-08-09T23:06:36.390Z,3.15
2018-08-09T23:09:09.757Z,2.85
2018-08-09T23:11:39.151Z,3.15
2018-08-09T23:14:08.525Z,2.92
2018-08-09T23:16:38.687Z,3.00
2018-08-09T23:19:08.228Z,2.60
2018-08-09T23:21:37.559Z,2.52
2018-08-09T23:24:07.100Z,2.30
2018-08-09T23:26:36.571Z,2.40
2018-08-09T23:29:06.174Z,2.58
2018-08-09T23:31:35.526Z,2.10
2018-08-09T23:36:33.801Z,2.02
2018-08-09T23:39:03.333Z,1.72
2018-08-09T23:41:32.702Z,2.35
2018-08-09T23:44:02.160Z,2.00
2018-08-09T23:46:31.505Z,1.95
2018-08-09T23:49:00.959Z,1.87
2018-08-09T23:51:30.431Z,1.70
2018-08-09T23:53:59.860Z,2.00
2018-08-09T23:56:29.374Z,1.80
2018-08-09T23:58:58.992Z,1.42
